KTDZ/TDZ METAR and TAF weather

Enter ICAO airport designator
Station Type Date Time Source
KTDZ METAR 2018/12/13 06:53 UTC NOAA

KTDZ 130653Z AUTO 23007KT 10SM SCT035 OVC042 03/M01 A2998 RMK AO2 SLP156 T00281006


Station Type Date Time Source
KTDZ Decoded METAR 2018/12/13 06:53 UTC NOAA

TOLEDO METCALF FIELD, OH, United States (KTDZ) 41-34N 83-29W 189M
Dec 13, 2018 - 01:53 AM EST / 2018.12.13 0653 UTC
Wind: from the SW (230 degrees) at 8 MPH (7 KT):0
Visibility: 10 mile(s):0
Sky conditions: overcast
Temperature: 37.0 F (2.8 C)
Dew Point: 30.9 F (-0.6 C)
Relative Humidity: 78%
Pressure (altimeter): 29.98 in. Hg (1015 hPa)
ob: KTDZ 130653Z AUTO 23007KT 10SM SCT035 OVC042 03/M01 A2998 RMK AO2 SLP156 T00281006
cycle: 7

Station Type Date Time Source
KTDZ TAF UTC NOAA

Error!


Example: see airport list